sensor_id;sensor_type;location;lat;lon;timestamp;P1;durP1;ratioP1;P2;durP2;ratioP2
76935;SDS011;65881;52.438;16.744;2023-07-20T00:01:15;9.80;;;6.63;;
76935;SDS011;65881;52.438;16.744;2023-07-20T00:03:41;14.70;;;6.82;;
76935;SDS011;65881;52.438;16.744;2023-07-20T00:06:07;11.05;;;8.40;;
76935;SDS011;65881;52.438;16.744;2023-07-20T00:08:34;11.75;;;6.78;;
76935;SDS011;65881;52.438;16.744;2023-07-20T00:10:59;11.23;;;7.57;;
76935;SDS011;65881;52.438;16.744;2023-07-20T00:13:25;12.65;;;7.28;;
76935;SDS011;65881;52.438;16.744;2023-07-20T00:15:51;13.45;;;6.93;;
76935;SDS011;65881;52.438;16.744;2023-07-20T00:18:17;22.13;;;7.60;;
76935;SDS011;65881;52.438;16.744;2023-07-20T00:20:52;14.82;;;7.57;;
76935;SDS011;65881;52.438;16.744;2023-07-20T00:23:17;12.02;;;7.10;;
76935;SDS011;65881;52.438;16.744;2023-07-20T00:25:46;10.75;;;7.65;;
76935;SDS011;65881;52.438;16.744;2023-07-20T00:28:12;9.90;;;8.57;;
76935;SDS011;65881;52.438;16.744;2023-07-20T00:30:38;8.65;;;7.00;;
76935;SDS011;65881;52.438;16.744;2023-07-20T00:33:03;17.05;;;10.00;;
76935;SDS011;65881;52.438;16.744;2023-07-20T00:35:29;10.88;;;8.10;;
76935;SDS011;65881;52.438;16.744;2023-07-20T00:37:55;17.77;;;8.55;;
76935;SDS011;65881;52.438;16.744;2023-07-20T00:40:21;8.45;;;7.55;;
76935;SDS011;65881;52.438;16.744;2023-07-20T00:42:46;13.50;;;8.65;;
76935;SDS011;65881;52.438;16.744;2023-07-20T00:45:12;13.43;;;9.52;;
76935;SDS011;65881;52.438;16.744;2023-07-20T00:47:38;10.07;;;8.32;;
76935;SDS011;65881;52.438;16.744;2023-07-20T00:52:33;9.27;;;7.60;;
76935;SDS011;65881;52.438;16.744;2023-07-20T00:54:59;9.40;;;8.00;;
76935;SDS011;65881;52.438;16.744;2023-07-20T00:57:27;12.27;;;9.13;;
76935;SDS011;65881;52.438;16.744;2023-07-20T00:59:52;10.93;;;9.00;;
76935;SDS011;65881;52.438;16.744;2023-07-20T01:02:18;15.63;;;10.15;;
76935;SDS011;65881;52.438;16.744;2023-07-20T01:04:44;13.05;;;9.98;;
76935;SDS011;65881;52.438;16.744;2023-07-20T01:07:26;17.42;;;10.70;;
76935;SDS011;65881;52.438;16.744;2023-07-20T01:10:17;14.70;;;8.07;;
76935;SDS011;65881;52.438;16.744;2023-07-20T01:12:47;9.75;;;8.75;;
76935;SDS011;65881;52.438;16.744;2023-07-20T01:15:15;10.38;;;8.45;;
76935;SDS011;65881;52.438;16.744;2023-07-20T01:17:41;10.70;;;8.30;;
76935;SDS011;65881;52.438;16.744;2023-07-20T01:20:07;10.45;;;8.73;;
76935;SDS011;65881;52.438;16.744;2023-07-20T01:33:48;13.55;;;8.45;;
76935;SDS011;65881;52.438;16.744;2023-07-20T01:36:16;12.85;;;10.00;;
76935;SDS011;65881;52.438;16.744;2023-07-20T01:38:43;15.88;;;8.70;;
76935;SDS011;65881;52.438;16.744;2023-07-20T01:41:10;23.67;;;11.48;;
76935;SDS011;65881;52.438;16.744;2023-07-20T01:43:36;10.90;;;9.52;;
76935;SDS011;65881;52.438;16.744;2023-07-20T01:46:02;14.23;;;10.07;;
76935;SDS011;65881;52.438;16.744;2023-07-20T01:48:27;14.68;;;9.75;;
76935;SDS011;65881;52.438;16.744;2023-07-20T01:50:53;12.00;;;10.57;;
76935;SDS011;65881;52.438;16.744;2023-07-20T01:53:20;12.98;;;10.10;;
76935;SDS011;65881;52.438;16.744;2023-07-20T01:55:46;12.65;;;9.82;;
76935;SDS011;65881;52.438;16.744;2023-07-20T01:58:11;13.13;;;10.82;;
76935;SDS011;65881;52.438;16.744;2023-07-20T02:00:37;11.60;;;10.07;;
76935;SDS011;65881;52.438;16.744;2023-07-20T02:03:04;11.95;;;10.70;;
76935;SDS011;65881;52.438;16.744;2023-07-20T02:05:29;11.30;;;10.20;;
76935;SDS011;65881;52.438;16.744;2023-07-20T02:07:55;12.25;;;9.63;;
76935;SDS011;65881;52.438;16.744;2023-07-20T02:10:21;10.95;;;9.85;;
76935;SDS011;65881;52.438;16.744;2023-07-20T02:12:47;13.85;;;10.45;;
76935;SDS011;65881;52.438;16.744;2023-07-20T02:15:18;13.38;;;9.45;;
76935;SDS011;65881;52.438;16.744;2023-07-20T02:17:44;11.13;;;9.63;;
76935;SDS011;65881;52.438;16.744;2023-07-20T02:20:10;11.90;;;10.30;;
76935;SDS011;65881;52.438;16.744;2023-07-20T02:22:36;20.38;;;10.20;;
76935;SDS011;65881;52.438;16.744;2023-07-20T02:25:05;16.83;;;9.77;;
76935;SDS011;65881;52.438;16.744;2023-07-20T02:27:32;12.73;;;11.15;;
76935;SDS011;65881;52.438;16.744;2023-07-20T02:32:31;10.52;;;9.35;;
76935;SDS011;65881;52.438;16.744;2023-07-20T02:35:03;10.70;;;9.70;;
76935;SDS011;65881;52.438;16.744;2023-07-20T02:37:29;12.38;;;10.05;;
76935;SDS011;65881;52.438;16.744;2023-07-20T02:39:55;14.13;;;10.43;;
76935;SDS011;65881;52.438;16.744;2023-07-20T02:42:21;11.63;;;9.68;;
76935;SDS011;65881;52.438;16.744;2023-07-20T02:44:48;14.15;;;10.02;;
76935;SDS011;65881;52.438;16.744;2023-07-20T02:47:14;12.38;;;10.50;;
76935;SDS011;65881;52.438;16.744;2023-07-20T02:49:40;12.80;;;10.45;;
76935;SDS011;65881;52.438;16.744;2023-07-20T02:52:05;13.27;;;10.77;;
76935;SDS011;65881;52.438;16.744;2023-07-20T02:54:31;13.07;;;10.25;;
76935;SDS011;65881;52.438;16.744;2023-07-20T02:56:57;12.48;;;10.68;;
76935;SDS011;65881;52.438;16.744;2023-07-20T02:59:22;11.30;;;10.02;;
76935;SDS011;65881;52.438;16.744;2023-07-20T03:01:48;15.45;;;9.88;;
76935;SDS011;65881;52.438;16.744;2023-07-20T03:04:14;11.75;;;9.23;;
76935;SDS011;65881;52.438;16.744;2023-07-20T03:06:41;10.88;;;9.45;;
76935;SDS011;65881;52.438;16.744;2023-07-20T03:09:07;11.75;;;10.55;;
76935;SDS011;65881;52.438;16.744;2023-07-20T03:11:34;11.45;;;10.25;;
76935;SDS011;65881;52.438;16.744;2023-07-20T03:14:02;13.07;;;9.63;;
76935;SDS011;65881;52.438;16.744;2023-07-20T03:16:27;13.18;;;9.75;;
76935;SDS011;65881;52.438;16.744;2023-07-20T03:18:54;12.30;;;11.05;;
76935;SDS011;65881;52.438;16.744;2023-07-20T03:21:20;14.45;;;10.40;;
76935;SDS011;65881;52.438;16.744;2023-07-20T03:23:45;13.60;;;9.85;;
76935;SDS011;65881;52.438;16.744;2023-07-20T03:26:11;13.43;;;10.50;;
76935;SDS011;65881;52.438;16.744;2023-07-20T03:28:37;12.98;;;10.68;;
76935;SDS011;65881;52.438;16.744;2023-07-20T03:31:04;12.48;;;10.82;;
76935;SDS011;65881;52.438;16.744;2023-07-20T03:33:30;12.65;;;11.30;;
76935;SDS011;65881;52.438;16.744;2023-07-20T03:35:56;15.80;;;12.80;;
76935;SDS011;65881;52.438;16.744;2023-07-20T03:38:23;15.25;;;11.20;;
76935;SDS011;65881;52.438;16.744;2023-07-20T03:40:52;14.35;;;12.18;;
76935;SDS011;65881;52.438;16.744;2023-07-20T03:43:25;12.55;;;11.13;;
76935;SDS011;65881;52.438;16.744;2023-07-20T03:45:52;13.75;;;11.90;;
76935;SDS011;65881;52.438;16.744;2023-07-20T03:48:21;13.43;;;10.77;;
76935;SDS011;65881;52.438;16.744;2023-07-20T03:50:48;12.98;;;11.57;;
76935;SDS011;65881;52.438;16.744;2023-07-20T03:53:17;14.20;;;11.07;;
76935;SDS011;65881;52.438;16.744;2023-07-20T03:55:46;11.55;;;10.35;;
76935;SDS011;65881;52.438;16.744;2023-07-20T03:58:13;13.77;;;12.30;;
76935;SDS011;65881;52.438;16.744;2023-07-20T04:00:39;13.23;;;11.77;;
76935;SDS011;65881;52.438;16.744;2023-07-20T04:03:08;12.75;;;10.57;;
76935;SDS011;65881;52.438;16.744;2023-07-20T04:05:33;11.40;;;9.77;;
76935;SDS011;65881;52.438;16.744;2023-07-20T04:07:59;11.88;;;10.63;;
76935;SDS011;65881;52.438;16.744;2023-07-20T04:10:24;13.77;;;11.52;;
76935;SDS011;65881;52.438;16.744;2023-07-20T04:12:50;15.40;;;10.98;;
76935;SDS011;65881;52.438;16.744;2023-07-20T04:15:16;11.23;;;10.00;;
76935;SDS011;65881;52.438;16.744;2023-07-20T04:17:41;11.20;;;10.05;;
76935;SDS011;65881;52.438;16.744;2023-07-20T04:20:07;14.35;;;10.73;;
76935;SDS011;65881;52.438;16.744;2023-07-20T04:22:33;13.40;;;10.85;;
76935;SDS011;65881;52.438;16.744;2023-07-20T04:24:59;14.77;;;9.73;;
76935;SDS011;65881;52.438;16.744;2023-07-20T04:27:25;12.02;;;10.25;;
76935;SDS011;65881;52.438;16.744;2023-07-20T04:29:51;13.27;;;10.13;;
76935;SDS011;65881;52.438;16.744;2023-07-20T04:34:46;15.15;;;11.40;;
76935;SDS011;65881;52.438;16.744;2023-07-20T04:37:11;12.32;;;11.13;;
76935;SDS011;65881;52.438;16.744;2023-07-20T04:39:46;12.32;;;10.55;;
76935;SDS011;65881;52.438;16.744;2023-07-20T04:42:12;12.23;;;10.20;;
76935;SDS011;65881;52.438;16.744;2023-07-20T04:44:44;12.23;;;10.95;;
76935;SDS011;65881;52.438;16.744;2023-07-20T04:47:11;13.23;;;11.88;;
76935;SDS011;65881;52.438;16.744;2023-07-20T04:49:36;11.55;;;10.35;;
76935;SDS011;65881;52.438;16.744;2023-07-20T04:52:02;14.32;;;11.20;;
76935;SDS011;65881;52.438;16.744;2023-07-20T04:54:28;12.75;;;11.45;;
76935;SDS011;65881;52.438;16.744;2023-07-20T04:56:54;15.68;;;11.45;;
76935;SDS011;65881;52.438;16.744;2023-07-20T04:59:19;14.48;;;11.50;;
76935;SDS011;65881;52.438;16.744;2023-07-20T05:01:45;12.60;;;10.63;;
76935;SDS011;65881;52.438;16.744;2023-07-20T05:07:21;13.32;;;9.93;;
76935;SDS011;65881;52.438;16.744;2023-07-20T05:09:56;12.07;;;10.65;;
76935;SDS011;65881;52.438;16.744;2023-07-20T05:12:37;12.82;;;10.65;;
76935;SDS011;65881;52.438;16.744;2023-07-20T05:15:15;16.48;;;10.13;;
76935;SDS011;65881;52.438;16.744;2023-07-20T05:17:42;15.45;;;10.38;;
76935;SDS011;65881;52.438;16.744;2023-07-20T05:20:23;12.20;;;10.05;;
76935;SDS011;65881;52.438;16.744;2023-07-20T05:22:48;10.55;;;9.27;;
76935;SDS011;65881;52.438;16.744;2023-07-20T05:25:19;13.80;;;9.88;;
76935;SDS011;65881;52.438;16.744;2023-07-20T05:27:51;11.98;;;10.88;;
76935;SDS011;65881;52.438;16.744;2023-07-20T05:30:35;16.92;;;11.18;;
76935;SDS011;65881;52.438;16.744;2023-07-20T05:36:07;11.85;;;10.65;;
76935;SDS011;65881;52.438;16.744;2023-07-20T05:38:39;16.08;;;10.05;;
76935;SDS011;65881;52.438;16.744;2023-07-20T05:41:05;12.73;;;10.00;;
76935;SDS011;65881;52.438;16.744;2023-07-20T05:43:34;11.60;;;9.73;;
76935;SDS011;65881;52.438;16.744;2023-07-20T05:46:00;15.68;;;9.18;;
76935;SDS011;65881;52.438;16.744;2023-07-20T05:48:27;13.60;;;8.32;;
76935;SDS011;65881;52.438;16.744;2023-07-20T05:50:53;12.70;;;8.63;;
76935;SDS011;65881;52.438;16.744;2023-07-20T05:53:19;13.00;;;9.18;;
76935;SDS011;65881;52.438;16.744;2023-07-20T05:55:55;13.52;;;9.77;;
76935;SDS011;65881;52.438;16.744;2023-07-20T05:58:21;8.30;;;7.30;;
76935;SDS011;65881;52.438;16.744;2023-07-20T06:03:33;14.32;;;9.63;;
76935;SDS011;65881;52.438;16.744;2023-07-20T06:06:02;14.25;;;9.20;;
76935;SDS011;65881;52.438;16.744;2023-07-20T06:08:31;11.35;;;8.60;;
76935;SDS011;65881;52.438;16.744;2023-07-20T06:10:57;11.57;;;9.27;;
76935;SDS011;65881;52.438;16.744;2023-07-20T06:13:23;9.65;;;8.43;;
76935;SDS011;65881;52.438;16.744;2023-07-20T06:15:54;9.40;;;7.20;;
76935;SDS011;65881;52.438;16.744;2023-07-20T06:18:23;8.25;;;7.18;;
76935;SDS011;65881;52.438;16.744;2023-07-20T06:20:49;8.77;;;6.65;;
76935;SDS011;65881;52.438;16.744;2023-07-20T06:23:25;8.55;;;6.93;;
76935;SDS011;65881;52.438;16.744;2023-07-20T06:25:51;6.72;;;5.68;;
76935;SDS011;65881;52.438;16.744;2023-07-20T06:28:16;7.78;;;6.97;;
76935;SDS011;65881;52.438;16.744;2023-07-20T06:30:43;12.70;;;5.88;;
76935;SDS011;65881;52.438;16.744;2023-07-20T06:33:08;7.00;;;5.72;;
76935;SDS011;65881;52.438;16.744;2023-07-20T06:35:34;8.27;;;5.15;;
76935;SDS011;65881;52.438;16.744;2023-07-20T06:38:24;6.57;;;4.80;;
76935;SDS011;65881;52.438;16.744;2023-07-20T06:40:54;6.53;;;5.13;;
76935;SDS011;65881;52.438;16.744;2023-07-20T06:43:38;7.13;;;6.03;;
76935;SDS011;65881;52.438;16.744;2023-07-20T06:46:04;5.95;;;5.18;;
76935;SDS011;65881;52.438;16.744;2023-07-20T06:48:30;7.90;;;5.10;;
76935;SDS011;65881;52.438;16.744;2023-07-20T06:50:58;4.65;;;4.18;;
76935;SDS011;65881;52.438;16.744;2023-07-20T06:53:24;7.30;;;5.47;;
76935;SDS011;65881;52.438;16.744;2023-07-20T06:55:53;8.43;;;4.82;;
76935;SDS011;65881;52.438;16.744;2023-07-20T06:58:25;7.40;;;5.53;;
76935;SDS011;65881;52.438;16.744;2023-07-20T07:00:51;9.27;;;5.75;;
76935;SDS011;65881;52.438;16.744;2023-07-20T07:03:17;7.90;;;5.05;;
76935;SDS011;65881;52.438;16.744;2023-07-20T07:05:43;7.25;;;4.82;;
76935;SDS011;65881;52.438;16.744;2023-07-20T07:08:10;5.63;;;4.60;;
76935;SDS011;65881;52.438;16.744;2023-07-20T07:10:38;6.72;;;4.60;;
76935;SDS011;65881;52.438;16.744;2023-07-20T07:13:04;5.75;;;4.55;;
76935;SDS011;65881;52.438;16.744;2023-07-20T07:15:30;3.90;;;3.50;;
76935;SDS011;65881;52.438;16.744;2023-07-20T07:17:57;7.13;;;4.53;;
76935;SDS011;65881;52.438;16.744;2023-07-20T07:20:24;6.47;;;5.20;;
76935;SDS011;65881;52.438;16.744;2023-07-20T07:22:53;6.55;;;4.00;;
76935;SDS011;65881;52.438;16.744;2023-07-20T07:25:34;6.65;;;4.18;;
76935;SDS011;65881;52.438;16.744;2023-07-20T07:27:59;6.93;;;4.05;;
76935;SDS011;65881;52.438;16.744;2023-07-20T07:30:25;4.80;;;3.47;;
76935;SDS011;65881;52.438;16.744;2023-07-20T07:32:57;6.18;;;4.57;;
76935;SDS011;65881;52.438;16.744;2023-07-20T07:35:31;7.28;;;5.15;;
76935;SDS011;65881;52.438;16.744;2023-07-20T07:37:57;6.18;;;3.65;;
76935;SDS011;65881;52.438;16.744;2023-07-20T07:40:26;4.82;;;4.03;;
76935;SDS011;65881;52.438;16.744;2023-07-20T07:43:12;5.38;;;4.32;;
76935;SDS011;65881;52.438;16.744;2023-07-20T07:45:47;5.43;;;4.47;;
76935;SDS011;65881;52.438;16.744;2023-07-20T07:48:21;4.50;;;4.05;;
76935;SDS011;65881;52.438;16.744;2023-07-20T07:50:47;4.38;;;3.97;;
76935;SDS011;65881;52.438;16.744;2023-07-20T07:53:43;8.27;;;5.43;;
76935;SDS011;65881;52.438;16.744;2023-07-20T07:56:18;6.50;;;4.70;;
76935;SDS011;65881;52.438;16.744;2023-07-20T07:59:02;8.73;;;4.95;;
76935;SDS011;65881;52.438;16.744;2023-07-20T08:01:28;4.57;;;4.18;;
76935;SDS011;65881;52.438;16.744;2023-07-20T08:04:33;5.05;;;4.47;;
76935;SDS011;65881;52.438;16.744;2023-07-20T08:06:59;4.30;;;3.90;;
76935;SDS011;65881;52.438;16.744;2023-07-20T08:12:28;7.53;;;4.45;;
76935;SDS011;65881;52.438;16.744;2023-07-20T08:15:06;5.35;;;4.35;;
76935;SDS011;65881;52.438;16.744;2023-07-20T08:20:12;7.03;;;5.53;;
76935;SDS011;65881;52.438;16.744;2023-07-20T08:22:50;7.65;;;5.68;;
76935;SDS011;65881;52.438;16.744;2023-07-20T08:25:16;8.07;;;4.97;;
76935;SDS011;65881;52.438;16.744;2023-07-20T08:27:48;5.65;;;4.63;;
76935;SDS011;65881;52.438;16.744;2023-07-20T08:33:17;5.78;;;5.18;;
76935;SDS011;65881;52.438;16.744;2023-07-20T08:35:47;5.90;;;5.00;;
76935;SDS011;65881;52.438;16.744;2023-07-20T08:38:30;5.10;;;4.28;;
76935;SDS011;65881;52.438;16.744;2023-07-20T08:40:56;4.75;;;4.25;;
76935;SDS011;65881;52.438;16.744;2023-07-20T08:43:24;5.53;;;4.55;;
76935;SDS011;65881;52.438;16.744;2023-07-20T08:46:00;5.10;;;4.22;;
76935;SDS011;65881;52.438;16.744;2023-07-20T08:48:27;6.70;;;4.28;;
76935;SDS011;65881;52.438;16.744;2023-07-20T08:51:07;4.45;;;3.67;;
76935;SDS011;65881;52.438;16.744;2023-07-20T08:53:35;6.28;;;4.25;;
76935;SDS011;65881;52.438;16.744;2023-07-20T08:56:01;6.93;;;4.22;;
76935;SDS011;65881;52.438;16.744;2023-07-20T08:58:29;3.75;;;2.60;;
76935;SDS011;65881;52.438;16.744;2023-07-20T09:00:57;2.22;;;1.40;;
76935;SDS011;65881;52.438;16.744;2023-07-20T09:03:25;1.00;;;1.00;;
76935;SDS011;65881;52.438;16.744;2023-07-20T09:05:53;2.40;;;0.90;;
76935;SDS011;65881;52.438;16.744;2023-07-20T09:08:19;4.53;;;1.63;;
76935;SDS011;65881;52.438;16.744;2023-07-20T09:10:54;1.60;;;1.02;;
76935;SDS011;65881;52.438;16.744;2023-07-20T09:16:52;4.13;;;1.60;;
76935;SDS011;65881;52.438;16.744;2023-07-20T09:19:25;2.88;;;1.50;;
76935;SDS011;65881;52.438;16.744;2023-07-20T09:22:03;2.85;;;1.65;;
76935;SDS011;65881;52.438;16.744;2023-07-20T09:24:55;4.32;;;1.70;;
76935;SDS011;65881;52.438;16.744;2023-07-20T09:27:39;2.55;;;1.35;;
76935;SDS011;65881;52.438;16.744;2023-07-20T09:30:37;2.85;;;1.60;;
76935;SDS011;65881;52.438;16.744;2023-07-20T09:33:21;1.77;;;1.40;;
76935;SDS011;65881;52.438;16.744;2023-07-20T09:36:02;4.20;;;1.40;;
76935;SDS011;65881;52.438;16.744;2023-07-20T09:38:41;2.60;;;1.30;;
76935;SDS011;65881;52.438;16.744;2023-07-20T09:41:14;2.13;;;1.40;;
76935;SDS011;65881;52.438;16.744;2023-07-20T09:43:46;3.72;;;2.33;;
76935;SDS011;65881;52.438;16.744;2023-07-20T09:46:12;2.55;;;2.30;;
76935;SDS011;65881;52.438;16.744;2023-07-20T09:48:51;2.63;;;1.88;;
76935;SDS011;65881;52.438;16.744;2023-07-20T09:51:21;2.22;;;1.67;;
76935;SDS011;65881;52.438;16.744;2023-07-20T09:53:48;2.03;;;1.65;;
76935;SDS011;65881;52.438;16.744;2023-07-20T09:56:17;2.25;;;1.90;;
76935;SDS011;65881;52.438;16.744;2023-07-20T09:59:10;4.20;;;2.58;;
76935;SDS011;65881;52.438;16.744;2023-07-20T10:01:53;2.90;;;2.60;;
76935;SDS011;65881;52.438;16.744;2023-07-20T10:04:29;3.28;;;2.50;;
76935;SDS011;65881;52.438;16.744;2023-07-20T10:07:13;5.47;;;3.38;;
76935;SDS011;65881;52.438;16.744;2023-07-20T10:09:40;3.90;;;3.60;;
76935;SDS011;65881;52.438;16.744;2023-07-20T10:12:09;4.38;;;3.00;;
76935;SDS011;65881;52.438;16.744;2023-07-20T10:14:38;4.20;;;3.80;;
76935;SDS011;65881;52.438;16.744;2023-07-20T10:17:07;4.25;;;3.83;;
76935;SDS011;65881;52.438;16.744;2023-07-20T10:22:25;5.15;;;4.68;;
76935;SDS011;65881;52.438;16.744;2023-07-20T10:27:21;6.43;;;4.80;;
76935;SDS011;65881;52.438;16.744;2023-07-20T10:30:05;5.30;;;4.57;;
76935;SDS011;65881;52.438;16.744;2023-07-20T10:32:34;3.83;;;3.42;;
76935;SDS011;65881;52.438;16.744;2023-07-20T10:35:01;3.40;;;3.10;;
76935;SDS011;65881;52.438;16.744;2023-07-20T10:37:52;4.53;;;2.88;;
76935;SDS011;65881;52.438;16.744;2023-07-20T10:40:30;3.17;;;2.78;;
76935;SDS011;65881;52.438;16.744;2023-07-20T10:43:02;5.00;;;2.95;;
76935;SDS011;65881;52.438;16.744;2023-07-20T10:51:55;3.13;;;2.50;;
76935;SDS011;65881;52.438;16.744;2023-07-20T10:58:06;2.95;;;2.65;;
76935;SDS011;65881;52.438;16.744;2023-07-20T11:03:28;2.50;;;2.22;;
76935;SDS011;65881;52.438;16.744;2023-07-20T11:09:05;2.92;;;2.63;;
76935;SDS011;65881;52.438;16.744;2023-07-20T11:12:09;3.45;;;2.47;;
76935;SDS011;65881;52.438;16.744;2023-07-20T11:14:57;4.00;;;2.50;;
76935;SDS011;65881;52.438;16.744;2023-07-20T11:17:30;4.10;;;2.30;;
76935;SDS011;65881;52.438;16.744;2023-07-20T11:20:12;2.63;;;2.08;;
76935;SDS011;65881;52.438;16.744;2023-07-20T11:22:48;3.35;;;2.50;;
76935;SDS011;65881;52.438;16.744;2023-07-20T11:25:19;3.38;;;2.00;;
76935;SDS011;65881;52.438;16.744;2023-07-20T11:27:47;2.70;;;1.67;;
76935;SDS011;65881;52.438;16.744;2023-07-20T11:30:26;2.28;;;1.58;;
76935;SDS011;65881;52.438;16.744;2023-07-20T11:32:55;1.85;;;1.58;;
76935;SDS011;65881;52.438;16.744;2023-07-20T11:35:23;1.60;;;1.50;;
76935;SDS011;65881;52.438;16.744;2023-07-20T11:37:58;4.47;;;1.55;;
76935;SDS011;65881;52.438;16.744;2023-07-20T11:40:33;2.83;;;1.65;;
76935;SDS011;65881;52.438;16.744;2023-07-20T11:43:12;2.25;;;2.05;;
76935;SDS011;65881;52.438;16.744;2023-07-20T11:45:39;1.92;;;1.70;;
76935;SDS011;65881;52.438;16.744;2023-07-20T11:48:07;2.33;;;1.80;;
76935;SDS011;65881;52.438;16.744;2023-07-20T11:50:57;2.00;;;1.60;;
76935;SDS011;65881;52.438;16.744;2023-07-20T11:53:24;2.65;;;1.80;;
76935;SDS011;65881;52.438;16.744;2023-07-20T11:55:50;2.00;;;1.60;;
76935;SDS011;65881;52.438;16.744;2023-07-20T12:01:25;1.92;;;1.60;;
76935;SDS011;65881;52.438;16.744;2023-07-20T12:04:03;1.80;;;1.52;;
76935;SDS011;65881;52.438;16.744;2023-07-20T12:06:32;1.42;;;1.30;;
76935;SDS011;65881;52.438;16.744;2023-07-20T12:09:13;1.55;;;1.42;;
76935;SDS011;65881;52.438;16.744;2023-07-20T12:11:54;3.42;;;1.50;;
76935;SDS011;65881;52.438;16.744;2023-07-20T12:14:28;1.63;;;1.50;;
76935;SDS011;65881;52.438;16.744;2023-07-20T12:16:54;5.15;;;2.58;;
76935;SDS011;65881;52.438;16.744;2023-07-20T12:19:32;2.05;;;1.70;;
76935;SDS011;65881;52.438;16.744;2023-07-20T12:22:03;3.65;;;2.17;;
76935;SDS011;65881;52.438;16.744;2023-07-20T12:27:50;2.33;;;1.95;;
76935;SDS011;65881;52.438;16.744;2023-07-20T12:30:39;2.95;;;2.08;;
76935;SDS011;65881;52.438;16.744;2023-07-20T12:33:18;3.05;;;2.33;;
76935;SDS011;65881;52.438;16.744;2023-07-20T12:35:43;3.30;;;2.35;;
76935;SDS011;65881;52.438;16.744;2023-07-20T12:38:12;2.80;;;2.60;;
76935;SDS011;65881;52.438;16.744;2023-07-20T12:40:38;2.50;;;2.00;;
76935;SDS011;65881;52.438;16.744;2023-07-20T12:43:07;2.20;;;1.67;;
76935;SDS011;65881;52.438;16.744;2023-07-20T12:45:33;2.33;;;2.13;;
76935;SDS011;65881;52.438;16.744;2023-07-20T12:47:59;1.98;;;1.77;;
76935;SDS011;65881;52.438;16.744;2023-07-20T12:50:46;2.47;;;2.15;;
76935;SDS011;65881;52.438;16.744;2023-07-20T12:53:28;2.40;;;2.20;;
76935;SDS011;65881;52.438;16.744;2023-07-20T12:55:54;3.28;;;2.53;;
76935;SDS011;65881;52.438;16.744;2023-07-20T12:58:34;7.57;;;5.25;;
76935;SDS011;65881;52.438;16.744;2023-07-20T13:01:03;4.30;;;2.38;;
76935;SDS011;65881;52.438;16.744;2023-07-20T13:03:34;2.30;;;2.10;;
76935;SDS011;65881;52.438;16.744;2023-07-20T13:06:00;3.03;;;2.78;;
76935;SDS011;65881;52.438;16.744;2023-07-20T13:08:34;2.60;;;2.40;;
76935;SDS011;65881;52.438;16.744;2023-07-20T13:11:03;4.13;;;2.53;;
76935;SDS011;65881;52.438;16.744;2023-07-20T13:13:30;3.63;;;2.40;;
76935;SDS011;65881;52.438;16.744;2023-07-20T13:15:55;2.38;;;2.17;;
76935;SDS011;65881;52.438;16.744;2023-07-20T13:18:22;3.05;;;2.75;;
76935;SDS011;65881;52.438;16.744;2023-07-20T13:20:48;3.22;;;2.90;;
76935;SDS011;65881;52.438;16.744;2023-07-20T13:23:13;3.30;;;3.03;;
76935;SDS011;65881;52.438;16.744;2023-07-20T13:25:39;3.28;;;2.05;;
76935;SDS011;65881;52.438;16.744;2023-07-20T13:28:06;2.10;;;1.90;;
76935;SDS011;65881;52.438;16.744;2023-07-20T13:30:31;2.72;;;2.10;;
76935;SDS011;65881;52.438;16.744;2023-07-20T13:32:57;2.97;;;1.90;;
76935;SDS011;65881;52.438;16.744;2023-07-20T13:35:23;4.18;;;2.10;;
76935;SDS011;65881;52.438;16.744;2023-07-20T13:37:52;2.13;;;1.92;;
76935;SDS011;65881;52.438;16.744;2023-07-20T13:40:17;4.45;;;3.10;;
76935;SDS011;65881;52.438;16.744;2023-07-20T13:42:44;2.65;;;2.08;;
76935;SDS011;65881;52.438;16.744;2023-07-20T13:45:10;2.05;;;1.70;;
76935;SDS011;65881;52.438;16.744;2023-07-20T13:47:36;1.90;;;1.65;;
76935;SDS011;65881;52.438;16.744;2023-07-20T13:50:01;1.52;;;1.42;;
76935;SDS011;65881;52.438;16.744;2023-07-20T13:52:30;2.25;;;1.70;;
76935;SDS011;65881;52.438;16.744;2023-07-20T13:54:56;2.97;;;1.80;;
76935;SDS011;65881;52.438;16.744;2023-07-20T13:57:24;2.10;;;1.75;;
76935;SDS011;65881;52.438;16.744;2023-07-20T13:59:50;2.10;;;1.83;;
76935;SDS011;65881;52.438;16.744;2023-07-20T14:02:15;1.77;;;1.52;;
76935;SDS011;65881;52.438;16.744;2023-07-20T14:04:41;2.78;;;1.98;;
76935;SDS011;65881;52.438;16.744;2023-07-20T14:07:07;2.00;;;1.80;;
76935;SDS011;65881;52.438;16.744;2023-07-20T14:09:32;1.67;;;1.50;;
76935;SDS011;65881;52.438;16.744;2023-07-20T14:11:58;2.85;;;1.85;;
76935;SDS011;65881;52.438;16.744;2023-07-20T14:14:26;2.78;;;2.25;;
76935;SDS011;65881;52.438;16.744;2023-07-20T14:16:55;2.33;;;1.60;;
76935;SDS011;65881;52.438;16.744;2023-07-20T14:19:24;2.45;;;1.60;;
76935;SDS011;65881;52.438;16.744;2023-07-20T14:21:53;2.33;;;1.48;;
76935;SDS011;65881;52.438;16.744;2023-07-20T14:24:20;1.80;;;1.45;;
76935;SDS011;65881;52.438;16.744;2023-07-20T14:26:45;2.00;;;1.77;;
76935;SDS011;65881;52.438;16.744;2023-07-20T14:29:13;1.88;;;1.52;;
76935;SDS011;65881;52.438;16.744;2023-07-20T14:31:46;1.75;;;1.55;;
76935;SDS011;65881;52.438;16.744;2023-07-20T14:34:18;2.17;;;1.70;;
76935;SDS011;65881;52.438;16.744;2023-07-20T14:36:44;2.30;;;1.98;;
76935;SDS011;65881;52.438;16.744;2023-07-20T14:39:13;1.90;;;1.80;;
76935;SDS011;65881;52.438;16.744;2023-07-20T14:41:38;10.02;;;2.38;;
76935;SDS011;65881;52.438;16.744;2023-07-20T14:44:04;1.73;;;1.60;;
76935;SDS011;65881;52.438;16.744;2023-07-20T14:46:30;2.80;;;1.80;;
76935;SDS011;65881;52.438;16.744;2023-07-20T14:48:58;4.10;;;1.90;;
76935;SDS011;65881;52.438;16.744;2023-07-20T14:51:42;2.80;;;2.10;;
76935;SDS011;65881;52.438;16.744;2023-07-20T14:54:11;3.00;;;1.70;;
76935;SDS011;65881;52.438;16.744;2023-07-20T14:56:38;2.58;;;1.85;;
76935;SDS011;65881;52.438;16.744;2023-07-20T14:59:03;2.05;;;1.52;;
76935;SDS011;65881;52.438;16.744;2023-07-20T15:01:30;1.85;;;1.63;;
76935;SDS011;65881;52.438;16.744;2023-07-20T15:03:56;3.30;;;2.10;;
76935;SDS011;65881;52.438;16.744;2023-07-20T15:06:22;3.47;;;2.65;;
76935;SDS011;65881;52.438;16.744;2023-07-20T15:08:48;1.67;;;1.58;;
76935;SDS011;65881;52.438;16.744;2023-07-20T15:11:14;2.70;;;2.45;;
76935;SDS011;65881;52.438;16.744;2023-07-20T15:13:40;3.35;;;2.10;;
76935;SDS011;65881;52.438;16.744;2023-07-20T15:16:08;1.85;;;1.60;;
76935;SDS011;65881;52.438;16.744;2023-07-20T15:18:35;3.13;;;1.70;;
76935;SDS011;65881;52.438;16.744;2023-07-20T15:21:01;2.60;;;1.70;;
76935;SDS011;65881;52.438;16.744;2023-07-20T15:23:27;5.10;;;3.50;;
76935;SDS011;65881;52.438;16.744;2023-07-20T15:25:53;2.10;;;1.90;;
76935;SDS011;65881;52.438;16.744;2023-07-20T15:28:18;2.15;;;1.70;;
76935;SDS011;65881;52.438;16.744;2023-07-20T15:30:44;2.35;;;2.00;;
76935;SDS011;65881;52.438;16.744;2023-07-20T15:33:10;2.58;;;2.35;;
76935;SDS011;65881;52.438;16.744;2023-07-20T15:35:36;2.60;;;1.83;;
76935;SDS011;65881;52.438;16.744;2023-07-20T15:38:02;2.00;;;1.80;;
76935;SDS011;65881;52.438;16.744;2023-07-20T15:40:28;2.60;;;1.73;;
76935;SDS011;65881;52.438;16.744;2023-07-20T15:42:53;4.90;;;3.33;;
76935;SDS011;65881;52.438;16.744;2023-07-20T15:45:20;2.75;;;2.33;;
76935;SDS011;65881;52.438;16.744;2023-07-20T15:47:47;4.45;;;2.28;;